sensor_id;sensor_type;location;lat;lon;timestamp;P1;durP1;ratioP1;P2;durP2;ratioP2
20657;SDS011;10488;50.846;4.078;2022-10-04T00:04:21;25.88;;;12.50;;
20657;SDS011;10488;50.846;4.078;2022-10-04T00:12:19;21.38;;;14.00;;
20657;SDS011;10488;50.846;4.078;2022-10-04T00:14:49;29.70;;;14.73;;
20657;SDS011;10488;50.846;4.078;2022-10-04T00:17:24;26.63;;;15.35;;
20657;SDS011;10488;50.846;4.078;2022-10-04T00:19:52;31.55;;;16.48;;
20657;SDS011;10488;50.846;4.078;2022-10-04T00:22:21;31.42;;;17.75;;
20657;SDS011;10488;50.846;4.078;2022-10-04T00:25:02;31.35;;;17.92;;
20657;SDS011;10488;50.846;4.078;2022-10-04T00:36:33;33.25;;;18.08;;
20657;SDS011;10488;50.846;4.078;2022-10-04T00:39:22;30.75;;;18.38;;
20657;SDS011;10488;50.846;4.078;2022-10-04T00:44:50;35.05;;;19.05;;
20657;SDS011;10488;50.846;4.078;2022-10-04T00:49:52;35.88;;;19.50;;
20657;SDS011;10488;50.846;4.078;2022-10-04T00:52:26;35.70;;;18.40;;
20657;SDS011;10488;50.846;4.078;2022-10-04T00:54:57;29.95;;;18.58;;
20657;SDS011;10488;50.846;4.078;2022-10-04T00:57:33;35.65;;;19.90;;
20657;SDS011;10488;50.846;4.078;2022-10-04T01:00:25;32.45;;;18.60;;
20657;SDS011;10488;50.846;4.078;2022-10-04T01:03:04;37.25;;;18.80;;
20657;SDS011;10488;50.846;4.078;2022-10-04T01:05:40;34.80;;;18.67;;
20657;SDS011;10488;50.846;4.078;2022-10-04T01:08:11;34.97;;;19.63;;
20657;SDS011;10488;50.846;4.078;2022-10-04T01:10:49;37.40;;;19.67;;
20657;SDS011;10488;50.846;4.078;2022-10-04T01:13:19;34.17;;;19.05;;
20657;SDS011;10488;50.846;4.078;2022-10-04T01:16:17;42.63;;;19.65;;
20657;SDS011;10488;50.846;4.078;2022-10-04T01:18:46;39.50;;;18.63;;
20657;SDS011;10488;50.846;4.078;2022-10-04T01:23:45;30.60;;;18.15;;
20657;SDS011;10488;50.846;4.078;2022-10-04T01:29:01;43.13;;;19.92;;
20657;SDS011;10488;50.846;4.078;2022-10-04T01:31:30;30.85;;;18.55;;
20657;SDS011;10488;50.846;4.078;2022-10-04T01:33:56;31.75;;;16.67;;
20657;SDS011;10488;50.846;4.078;2022-10-04T01:36:24;21.30;;;14.93;;
20657;SDS011;10488;50.846;4.078;2022-10-04T01:38:52;23.73;;;15.52;;
20657;SDS011;10488;50.846;4.078;2022-10-04T01:41:20;22.58;;;14.32;;
20657;SDS011;10488;50.846;4.078;2022-10-04T01:44:01;19.42;;;13.60;;
20657;SDS011;10488;50.846;4.078;2022-10-04T01:46:33;23.73;;;15.15;;
20657;SDS011;10488;50.846;4.078;2022-10-04T01:49:02;19.98;;;14.45;;
20657;SDS011;10488;50.846;4.078;2022-10-04T01:51:35;27.00;;;15.40;;
20657;SDS011;10488;50.846;4.078;2022-10-04T01:54:15;29.02;;;16.30;;
20657;SDS011;10488;50.846;4.078;2022-10-04T01:56:45;22.48;;;15.63;;
20657;SDS011;10488;50.846;4.078;2022-10-04T01:59:23;24.67;;;14.40;;
20657;SDS011;10488;50.846;4.078;2022-10-04T02:02:00;24.73;;;15.25;;
20657;SDS011;10488;50.846;4.078;2022-10-04T02:04:32;25.88;;;14.23;;
20657;SDS011;10488;50.846;4.078;2022-10-04T02:07:03;23.50;;;14.30;;
20657;SDS011;10488;50.846;4.078;2022-10-04T02:09:38;28.98;;;14.57;;
20657;SDS011;10488;50.846;4.078;2022-10-04T02:12:07;21.40;;;13.95;;
20657;SDS011;10488;50.846;4.078;2022-10-04T02:14:34;27.92;;;15.68;;
20657;SDS011;10488;50.846;4.078;2022-10-04T02:17:04;33.58;;;17.30;;
20657;SDS011;10488;50.846;4.078;2022-10-04T02:19:35;32.85;;;19.10;;
20657;SDS011;10488;50.846;4.078;2022-10-04T02:22:03;46.00;;;20.67;;
20657;SDS011;10488;50.846;4.078;2022-10-04T02:24:36;39.92;;;20.15;;
20657;SDS011;10488;50.846;4.078;2022-10-04T02:27:05;40.17;;;22.30;;
20657;SDS011;10488;50.846;4.078;2022-10-04T02:29:31;47.50;;;22.38;;
20657;SDS011;10488;50.846;4.078;2022-10-04T02:31:56;37.72;;;21.63;;
20657;SDS011;10488;50.846;4.078;2022-10-04T02:34:41;41.28;;;21.27;;
20657;SDS011;10488;50.846;4.078;2022-10-04T02:37:08;43.33;;;22.40;;
20657;SDS011;10488;50.846;4.078;2022-10-04T02:39:35;40.45;;;21.42;;
20657;SDS011;10488;50.846;4.078;2022-10-04T02:42:17;43.13;;;22.35;;
20657;SDS011;10488;50.846;4.078;2022-10-04T02:44:49;40.90;;;20.88;;
20657;SDS011;10488;50.846;4.078;2022-10-04T02:47:28;38.60;;;20.83;;
20657;SDS011;10488;50.846;4.078;2022-10-04T02:50:07;47.83;;;22.33;;
20657;SDS011;10488;50.846;4.078;2022-10-04T02:52:46;43.95;;;22.17;;
20657;SDS011;10488;50.846;4.078;2022-10-04T02:57:57;48.88;;;21.80;;
20657;SDS011;10488;50.846;4.078;2022-10-04T03:00:25;38.42;;;21.02;;
20657;SDS011;10488;50.846;4.078;2022-10-04T03:03:27;43.45;;;21.10;;
20657;SDS011;10488;50.846;4.078;2022-10-04T03:08:28;36.30;;;20.42;;
20657;SDS011;10488;50.846;4.078;2022-10-04T03:10:56;38.58;;;19.02;;
20657;SDS011;10488;50.846;4.078;2022-10-04T03:13:24;39.78;;;20.95;;
20657;SDS011;10488;50.846;4.078;2022-10-04T03:15:50;48.92;;;22.02;;
20657;SDS011;10488;50.846;4.078;2022-10-04T03:18:16;51.08;;;22.13;;
20657;SDS011;10488;50.846;4.078;2022-10-04T03:20:44;55.70;;;22.45;;
20657;SDS011;10488;50.846;4.078;2022-10-04T03:23:11;46.75;;;21.35;;
20657;SDS011;10488;50.846;4.078;2022-10-04T03:25:50;44.15;;;23.30;;
20657;SDS011;10488;50.846;4.078;2022-10-04T03:28:23;47.97;;;21.85;;
20657;SDS011;10488;50.846;4.078;2022-10-04T03:30:51;45.15;;;22.63;;
20657;SDS011;10488;50.846;4.078;2022-10-04T03:33:21;55.15;;;21.85;;
20657;SDS011;10488;50.846;4.078;2022-10-04T03:35:50;46.17;;;22.42;;
20657;SDS011;10488;50.846;4.078;2022-10-04T03:38:18;40.10;;;20.58;;
20657;SDS011;10488;50.846;4.078;2022-10-04T03:40:48;51.85;;;22.70;;
20657;SDS011;10488;50.846;4.078;2022-10-04T03:43:17;36.78;;;20.85;;
20657;SDS011;10488;50.846;4.078;2022-10-04T03:45:44;42.50;;;20.95;;
20657;SDS011;10488;50.846;4.078;2022-10-04T03:48:11;41.10;;;20.45;;
20657;SDS011;10488;50.846;4.078;2022-10-04T03:50:45;34.20;;;19.38;;
20657;SDS011;10488;50.846;4.078;2022-10-04T03:53:35;41.70;;;20.48;;
20657;SDS011;10488;50.846;4.078;2022-10-04T03:56:08;41.33;;;19.38;;
20657;SDS011;10488;50.846;4.078;2022-10-04T03:58:41;36.53;;;19.08;;
20657;SDS011;10488;50.846;4.078;2022-10-04T04:04:13;35.05;;;18.35;;
20657;SDS011;10488;50.846;4.078;2022-10-04T04:07:00;35.72;;;18.25;;
20657;SDS011;10488;50.846;4.078;2022-10-04T04:12:16;40.03;;;18.60;;
20657;SDS011;10488;50.846;4.078;2022-10-04T04:14:46;33.95;;;17.33;;
20657;SDS011;10488;50.846;4.078;2022-10-04T04:22:57;29.77;;;16.27;;
20657;SDS011;10488;50.846;4.078;2022-10-04T04:25:23;39.20;;;17.45;;
20657;SDS011;10488;50.846;4.078;2022-10-04T04:27:52;33.40;;;17.00;;
20657;SDS011;10488;50.846;4.078;2022-10-04T04:30:25;32.22;;;16.67;;
20657;SDS011;10488;50.846;4.078;2022-10-04T04:32:52;32.72;;;16.33;;
20657;SDS011;10488;50.846;4.078;2022-10-04T04:35:28;29.60;;;15.50;;
20657;SDS011;10488;50.846;4.078;2022-10-04T04:38:02;23.55;;;14.65;;
20657;SDS011;10488;50.846;4.078;2022-10-04T04:40:37;32.83;;;16.55;;
20657;SDS011;10488;50.846;4.078;2022-10-04T04:43:04;28.08;;;15.82;;
20657;SDS011;10488;50.846;4.078;2022-10-04T04:45:30;28.02;;;15.68;;
20657;SDS011;10488;50.846;4.078;2022-10-04T04:47:57;32.08;;;14.95;;
20657;SDS011;10488;50.846;4.078;2022-10-04T04:50:29;30.08;;;14.82;;
20657;SDS011;10488;50.846;4.078;2022-10-04T04:53:15;29.70;;;13.63;;
20657;SDS011;10488;50.846;4.078;2022-10-04T04:55:45;27.50;;;15.00;;
20657;SDS011;10488;50.846;4.078;2022-10-04T05:06:48;27.30;;;14.13;;
20657;SDS011;10488;50.846;4.078;2022-10-04T05:09:34;25.08;;;14.38;;
20657;SDS011;10488;50.846;4.078;2022-10-04T05:12:07;24.38;;;13.48;;
20657;SDS011;10488;50.846;4.078;2022-10-04T05:14:38;28.15;;;14.45;;
20657;SDS011;10488;50.846;4.078;2022-10-04T05:17:13;31.85;;;13.55;;
20657;SDS011;10488;50.846;4.078;2022-10-04T05:19:57;37.10;;;14.18;;
20657;SDS011;10488;50.846;4.078;2022-10-04T05:22:24;28.08;;;13.95;;
20657;SDS011;10488;50.846;4.078;2022-10-04T05:24:51;36.28;;;14.75;;
20657;SDS011;10488;50.846;4.078;2022-10-04T05:35:14;34.25;;;15.43;;
20657;SDS011;10488;50.846;4.078;2022-10-04T05:42:55;31.80;;;15.35;;
20657;SDS011;10488;50.846;4.078;2022-10-04T05:45:25;34.72;;;15.10;;
20657;SDS011;10488;50.846;4.078;2022-10-04T05:47:55;29.63;;;14.77;;
20657;SDS011;10488;50.846;4.078;2022-10-04T05:53:09;32.03;;;15.23;;
20657;SDS011;10488;50.846;4.078;2022-10-04T06:10:58;36.05;;;15.77;;
20657;SDS011;10488;50.846;4.078;2022-10-04T06:22:01;26.13;;;14.82;;
20657;SDS011;10488;50.846;4.078;2022-10-04T06:24:37;30.73;;;15.70;;
20657;SDS011;10488;50.846;4.078;2022-10-04T06:30:04;36.58;;;15.18;;
20657;SDS011;10488;50.846;4.078;2022-10-04T06:44:04;29.80;;;15.00;;
20657;SDS011;10488;50.846;4.078;2022-10-04T06:58:13;29.13;;;13.60;;
20657;SDS011;10488;50.846;4.078;2022-10-04T07:03:58;27.65;;;14.40;;
20657;SDS011;10488;50.846;4.078;2022-10-04T07:06:36;26.88;;;14.05;;
20657;SDS011;10488;50.846;4.078;2022-10-04T07:09:23;17.95;;;10.32;;
20657;SDS011;10488;50.846;4.078;2022-10-04T07:11:58;20.10;;;9.27;;
20657;SDS011;10488;50.846;4.078;2022-10-04T07:14:32;18.15;;;8.07;;
20657;SDS011;10488;50.846;4.078;2022-10-04T07:17:10;14.07;;;7.40;;
20657;SDS011;10488;50.846;4.078;2022-10-04T07:19:46;15.48;;;6.80;;
20657;SDS011;10488;50.846;4.078;2022-10-04T07:22:15;18.95;;;7.05;;
20657;SDS011;10488;50.846;4.078;2022-10-04T07:27:52;12.63;;;6.50;;
20657;SDS011;10488;50.846;4.078;2022-10-04T07:30:44;10.30;;;5.75;;
20657;SDS011;10488;50.846;4.078;2022-10-04T07:33:16;13.02;;;5.63;;
20657;SDS011;10488;50.846;4.078;2022-10-04T07:35:47;16.02;;;5.97;;
20657;SDS011;10488;50.846;4.078;2022-10-04T07:38:37;12.85;;;5.15;;
20657;SDS011;10488;50.846;4.078;2022-10-04T07:44:00;13.63;;;5.90;;
20657;SDS011;10488;50.846;4.078;2022-10-04T07:49:21;10.35;;;5.30;;
20657;SDS011;10488;50.846;4.078;2022-10-04T07:51:57;11.98;;;4.85;;
20657;SDS011;10488;50.846;4.078;2022-10-04T08:00:21;13.40;;;5.05;;
20657;SDS011;10488;50.846;4.078;2022-10-04T08:05:26;9.20;;;4.88;;
20657;SDS011;10488;50.846;4.078;2022-10-04T08:08:16;11.38;;;5.63;;
20657;SDS011;10488;50.846;4.078;2022-10-04T08:11:02;11.50;;;5.68;;
20657;SDS011;10488;50.846;4.078;2022-10-04T08:22:06;12.82;;;5.80;;
20657;SDS011;10488;50.846;4.078;2022-10-04T08:36:19;9.57;;;5.93;;
20657;SDS011;10488;50.846;4.078;2022-10-04T08:39:00;14.00;;;6.53;;
20657;SDS011;10488;50.846;4.078;2022-10-04T08:41:43;11.77;;;6.60;;
20657;SDS011;10488;50.846;4.078;2022-10-04T08:53:15;13.18;;;7.50;;
20657;SDS011;10488;50.846;4.078;2022-10-04T08:58:33;14.65;;;7.32;;
20657;SDS011;10488;50.846;4.078;2022-10-04T09:01:36;13.48;;;8.20;;
20657;SDS011;10488;50.846;4.078;2022-10-04T09:04:35;18.75;;;7.88;;
20657;SDS011;10488;50.846;4.078;2022-10-04T09:15:53;14.80;;;7.53;;
20657;SDS011;10488;50.846;4.078;2022-10-04T09:18:36;12.45;;;6.82;;
20657;SDS011;10488;50.846;4.078;2022-10-04T09:49:28;25.77;;;8.32;;
20657;SDS011;10488;50.846;4.078;2022-10-04T09:58:09;15.38;;;7.78;;
20657;SDS011;10488;50.846;4.078;2022-10-04T10:01:12;16.83;;;8.38;;
20657;SDS011;10488;50.846;4.078;2022-10-04T10:03:58;16.13;;;8.23;;
20657;SDS011;10488;50.846;4.078;2022-10-04T10:06:40;16.08;;;8.77;;
20657;SDS011;10488;50.846;4.078;2022-10-04T10:09:23;19.67;;;9.10;;
20657;SDS011;10488;50.846;4.078;2022-10-04T10:15:58;17.42;;;7.95;;
20657;SDS011;10488;50.846;4.078;2022-10-04T10:21:03;15.25;;;7.97;;
20657;SDS011;10488;50.846;4.078;2022-10-04T10:38:06;14.23;;;7.72;;
20657;SDS011;10488;50.846;4.078;2022-10-04T10:54:19;11.57;;;7.38;;
20657;SDS011;10488;50.846;4.078;2022-10-04T11:00:12;9.77;;;6.55;;
20657;SDS011;10488;50.846;4.078;2022-10-04T11:26:09;12.10;;;5.18;;
20657;SDS011;10488;50.846;4.078;2022-10-04T11:40:28;13.18;;;5.53;;
20657;SDS011;10488;50.846;4.078;2022-10-04T11:46:20;11.68;;;6.10;;
20657;SDS011;10488;50.846;4.078;2022-10-04T11:52:53;9.15;;;5.50;;
20657;SDS011;10488;50.846;4.078;2022-10-04T11:58:18;9.93;;;5.53;;
20657;SDS011;10488;50.846;4.078;2022-10-04T12:03:51;10.20;;;5.28;;
20657;SDS011;10488;50.846;4.078;2022-10-04T12:32:16;8.35;;;5.45;;
20657;SDS011;10488;50.846;4.078;2022-10-04T12:46:19;8.15;;;5.63;;
20657;SDS011;10488;50.846;4.078;2022-10-04T12:52:07;10.82;;;5.28;;
20657;SDS011;10488;50.846;4.078;2022-10-04T12:54:43;9.63;;;4.70;;
20657;SDS011;10488;50.846;4.078;2022-10-04T12:59:52;8.57;;;4.50;;
20657;SDS011;10488;50.846;4.078;2022-10-04T13:02:26;10.98;;;4.43;;
20657;SDS011;10488;50.846;4.078;2022-10-04T13:07:56;7.85;;;4.70;;
20657;SDS011;10488;50.846;4.078;2022-10-04T13:13:21;9.27;;;4.05;;
20657;SDS011;10488;50.846;4.078;2022-10-04T13:16:19;8.35;;;4.25;;
20657;SDS011;10488;50.846;4.078;2022-10-04T13:18:56;8.10;;;3.45;;
20657;SDS011;10488;50.846;4.078;2022-10-04T13:32:15;11.48;;;4.78;;
20657;SDS011;10488;50.846;4.078;2022-10-04T13:34:51;9.43;;;4.57;;
20657;SDS011;10488;50.846;4.078;2022-10-04T13:37:59;6.88;;;4.28;;
20657;SDS011;10488;50.846;4.078;2022-10-04T13:57:56;4.93;;;3.53;;
20657;SDS011;10488;50.846;4.078;2022-10-04T14:00:50;7.85;;;3.53;;
20657;SDS011;10488;50.846;4.078;2022-10-04T14:08:55;5.80;;;3.15;;
20657;SDS011;10488;50.846;4.078;2022-10-04T14:11:38;5.07;;;3.22;;
20657;SDS011;10488;50.846;4.078;2022-10-04T14:31:16;6.80;;;3.33;;
20657;SDS011;10488;50.846;4.078;2022-10-04T14:39:46;3.83;;;3.25;;
20657;SDS011;10488;50.846;4.078;2022-10-04T14:42:40;6.63;;;3.35;;
20657;SDS011;10488;50.846;4.078;2022-10-04T14:51:40;5.80;;;2.90;;
20657;SDS011;10488;50.846;4.078;2022-10-04T14:57:11;2.58;;;2.38;;
20657;SDS011;10488;50.846;4.078;2022-10-04T15:00:15;4.63;;;2.20;;
20657;SDS011;10488;50.846;4.078;2022-10-04T15:17:23;4.18;;;2.50;;
20657;SDS011;10488;50.846;4.078;2022-10-04T15:21:45;3.97;;;2.20;;
20657;SDS011;10488;50.846;4.078;2022-10-04T15:27:25;4.35;;;2.35;;
20657;SDS011;10488;50.846;4.078;2022-10-04T15:35:35;4.45;;;2.55;;
20657;SDS011;10488;50.846;4.078;2022-10-04T15:40:52;4.95;;;2.83;;
20657;SDS011;10488;50.846;4.078;2022-10-04T15:46:14;8.18;;;2.78;;
20657;SDS011;10488;50.846;4.078;2022-10-04T16:06:20;4.45;;;2.83;;
20657;SDS011;10488;50.846;4.078;2022-10-04T16:22:36;6.35;;;3.45;;
20657;SDS011;10488;50.846;4.078;2022-10-04T16:27:57;6.75;;;3.70;;
20657;SDS011;10488;50.846;4.078;2022-10-04T16:33:43;5.47;;;3.38;;
20657;SDS011;10488;50.846;4.078;2022-10-04T16:36:26;6.63;;;4.40;;
20657;SDS011;10488;50.846;4.078;2022-10-04T16:39:07;6.80;;;3.40;;
20657;SDS011;10488;50.846;4.078;2022-10-04T16:41:56;5.72;;;3.65;;
20657;SDS011;10488;50.846;4.078;2022-10-04T16:44:28;7.10;;;4.03;;
20657;SDS011;10488;50.846;4.078;2022-10-04T16:47:49;7.55;;;4.03;;
20657;SDS011;10488;50.846;4.078;2022-10-04T16:50:08;6.57;;;3.58;;
20657;SDS011;10488;50.846;4.078;2022-10-04T16:55:55;8.80;;;4.22;;
20657;SDS011;10488;50.846;4.078;2022-10-04T16:58:34;7.70;;;4.03;;
20657;SDS011;10488;50.846;4.078;2022-10-04T17:06:29;7.25;;;4.30;;
20657;SDS011;10488;50.846;4.078;2022-10-04T17:20:56;11.18;;;6.22;;
20657;SDS011;10488;50.846;4.078;2022-10-04T17:36:49;11.55;;;6.47;;
20657;SDS011;10488;50.846;4.078;2022-10-04T17:48:37;6.90;;;6.20;;
20657;SDS011;10488;50.846;4.078;2022-10-04T17:53:55;9.60;;;6.38;;
20657;SDS011;10488;50.846;4.078;2022-10-04T17:59:21;9.75;;;6.03;;
20657;SDS011;10488;50.846;4.078;2022-10-04T18:02:39;9.60;;;5.95;;
20657;SDS011;10488;50.846;4.078;2022-10-04T18:04:49;16.77;;;6.22;;
20657;SDS011;10488;50.846;4.078;2022-10-04T18:07:24;8.98;;;6.00;;
20657;SDS011;10488;50.846;4.078;2022-10-04T18:10:18;9.68;;;5.80;;
20657;SDS011;10488;50.846;4.078;2022-10-04T18:12:47;8.82;;;6.47;;
20657;SDS011;10488;50.846;4.078;2022-10-04T18:17:52;10.82;;;6.55;;
20657;SDS011;10488;50.846;4.078;2022-10-04T18:21:17;14.10;;;6.82;;
20657;SDS011;10488;50.846;4.078;2022-10-04T18:23:30;12.88;;;7.10;;
20657;SDS011;10488;50.846;4.078;2022-10-04T18:26:10;17.73;;;7.95;;
20657;SDS011;10488;50.846;4.078;2022-10-04T18:28:42;11.90;;;7.10;;
20657;SDS011;10488;50.846;4.078;2022-10-04T18:36:46;10.95;;;7.25;;
20657;SDS011;10488;50.846;4.078;2022-10-04T18:39:17;8.27;;;7.03;;
20657;SDS011;10488;50.846;4.078;2022-10-04T18:41:59;11.75;;;8.00;;
20657;SDS011;10488;50.846;4.078;2022-10-04T18:45:16;12.13;;;7.05;;
20657;SDS011;10488;50.846;4.078;2022-10-04T18:50:25;10.68;;;7.30;;
20657;SDS011;10488;50.846;4.078;2022-10-04T18:55:44;11.32;;;7.38;;
20657;SDS011;10488;50.846;4.078;2022-10-04T19:01:44;10.23;;;6.32;;
20657;SDS011;10488;50.846;4.078;2022-10-04T19:04:43;11.20;;;7.50;;
20657;SDS011;10488;50.846;4.078;2022-10-04T19:23:14;12.80;;;7.13;;
20657;SDS011;10488;50.846;4.078;2022-10-04T19:25:44;13.18;;;8.32;;
20657;SDS011;10488;50.846;4.078;2022-10-04T19:55:54;15.90;;;7.60;;
20657;SDS011;10488;50.846;4.078;2022-10-04T20:01:14;12.77;;;7.68;;
20657;SDS011;10488;50.846;4.078;2022-10-04T20:03:47;9.07;;;7.72;;
20657;SDS011;10488;50.846;4.078;2022-10-04T20:06:32;13.35;;;8.10;;
20657;SDS011;10488;50.846;4.078;2022-10-04T20:09:20;14.25;;;7.63;;
20657;SDS011;10488;50.846;4.078;2022-10-04T20:11:49;12.50;;;7.63;;
20657;SDS011;10488;50.846;4.078;2022-10-04T20:21:43;12.43;;;7.55;;
20657;SDS011;10488;50.846;4.078;2022-10-04T20:24:17;13.27;;;7.65;;
20657;SDS011;10488;50.846;4.078;2022-10-04T20:35:01;10.05;;;6.65;;
20657;SDS011;10488;50.846;4.078;2022-10-04T20:45:48;11.18;;;6.47;;
20657;SDS011;10488;50.846;4.078;2022-10-04T20:48:26;10.30;;;7.40;;
20657;SDS011;10488;50.846;4.078;2022-10-04T20:50:53;10.68;;;6.90;;
20657;SDS011;10488;50.846;4.078;2022-10-04T20:53:24;9.80;;;7.07;;
20657;SDS011;10488;50.846;4.078;2022-10-04T20:56:07;11.43;;;6.88;;
20657;SDS011;10488;50.846;4.078;2022-10-04T20:58:39;7.97;;;6.13;;
20657;SDS011;10488;50.846;4.078;2022-10-04T21:07:04;12.93;;;6.45;;
20657;SDS011;10488;50.846;4.078;2022-10-04T21:09:32;10.75;;;6.85;;
20657;SDS011;10488;50.846;4.078;2022-10-04T21:11:59;10.15;;;6.43;;
20657;SDS011;10488;50.846;4.078;2022-10-04T21:14:30;12.63;;;6.18;;
20657;SDS011;10488;50.846;4.078;2022-10-04T21:16:57;8.32;;;5.72;;
20657;SDS011;10488;50.846;4.078;2022-10-04T21:22:29;11.48;;;7.13;;
20657;SDS011;10488;50.846;4.078;2022-10-04T21:24:56;10.75;;;6.30;;
20657;SDS011;10488;50.846;4.078;2022-10-04T21:27:24;9.00;;;6.05;;
20657;SDS011;10488;50.846;4.078;2022-10-04T21:29:57;12.98;;;6.53;;
20657;SDS011;10488;50.846;4.078;2022-10-04T21:32:31;9.82;;;6.38;;
20657;SDS011;10488;50.846;4.078;2022-10-04T21:34:58;10.80;;;6.82;;
20657;SDS011;10488;50.846;4.078;2022-10-04T21:37:24;10.32;;;6.15;;
20657;SDS011;10488;50.846;4.078;2022-10-04T21:39:50;10.18;;;6.28;;
20657;SDS011;10488;50.846;4.078;2022-10-04T21:42:16;12.25;;;7.05;;
20657;SDS011;10488;50.846;4.078;2022-10-04T21:44:42;8.18;;;6.10;;
20657;SDS011;10488;50.846;4.078;2022-10-04T21:47:07;9.50;;;6.72;;
20657;SDS011;10488;50.846;4.078;2022-10-04T21:49:33;11.75;;;6.28;;
20657;SDS011;10488;50.846;4.078;2022-10-04T21:51:59;12.90;;;6.20;;
20657;SDS011;10488;50.846;4.078;2022-10-04T21:54:24;10.65;;;6.03;;
20657;SDS011;10488;50.846;4.078;2022-10-04T21:56:50;10.50;;;6.43;;
20657;SDS011;10488;50.846;4.078;2022-10-04T21:59:18;8.10;;;6.20;;
20657;SDS011;10488;50.846;4.078;2022-10-04T22:01:44;8.55;;;6.32;;
20657;SDS011;10488;50.846;4.078;2022-10-04T22:04:11;8.25;;;6.40;;
20657;SDS011;10488;50.846;4.078;2022-10-04T22:06:37;8.75;;;6.43;;
20657;SDS011;10488;50.846;4.078;2022-10-04T22:09:03;10.52;;;7.05;;
20657;SDS011;10488;50.846;4.078;2022-10-04T22:11:29;11.38;;;7.10;;
20657;SDS011;10488;50.846;4.078;2022-10-04T22:13:55;12.32;;;6.05;;
20657;SDS011;10488;50.846;4.078;2022-10-04T22:16:20;12.55;;;6.32;;
20657;SDS011;10488;50.846;4.078;2022-10-04T22:18:47;8.50;;;5.90;;
20657;SDS011;10488;50.846;4.078;2022-10-04T22:21:12;11.63;;;6.57;;
20657;SDS011;10488;50.846;4.078;2022-10-04T22:23:39;8.50;;;7.00;;
20657;SDS011;10488;50.846;4.078;2022-10-04T22:26:10;10.15;;;7.38;;
20657;SDS011;10488;50.846;4.078;2022-10-04T22:28:37;11.25;;;6.82;;
20657;SDS011;10488;50.846;4.078;2022-10-04T22:31:28;12.35;;;7.32;;
20657;SDS011;10488;50.846;4.078;2022-10-04T22:33:53;9.70;;;5.65;;
20657;SDS011;10488;50.846;4.078;2022-10-04T22:36:28;11.20;;;6.38;;
20657;SDS011;10488;50.846;4.078;2022-10-04T22:39:10;12.75;;;5.90;;
20657;SDS011;10488;50.846;4.078;2022-10-04T22:41:40;7.90;;;6.60;;
20657;SDS011;10488;50.846;4.078;2022-10-04T22:44:17;10.25;;;7.45;;
20657;SDS011;10488;50.846;4.078;2022-10-04T22:46:45;7.10;;;6.13;;
20657;SDS011;10488;50.846;4.078;2022-10-04T22:49:15;13.38;;;6.57;;
20657;SDS011;10488;50.846;4.078;2022-10-04T22:51:42;7.65;;;5.82;;
20657;SDS011;10488;50.846;4.078;2022-10-04T22:54:19;11.23;;;7.05;;
20657;SDS011;10488;50.846;4.078;2022-10-04T22:56:47;11.73;;;6.43;;
20657;SDS011;10488;50.846;4.078;2022-10-04T22:59:15;10.43;;;6.32;;
20657;SDS011;10488;50.846;4.078;2022-10-04T23:01:43;8.13;;;6.05;;
20657;SDS011;10488;50.846;4.078;2022-10-04T23:04:11;9.80;;;6.80;;
20657;SDS011;10488;50.846;4.078;2022-10-04T23:06:50;10.65;;;6.80;;
20657;SDS011;10488;50.846;4.078;2022-10-04T23:09:16;11.10;;;7.22;;
20657;SDS011;10488;50.846;4.078;2022-10-04T23:11:42;9.35;;;6.80;;
20657;SDS011;10488;50.846;4.078;2022-10-04T23:14:08;12.27;;;6.45;;
20657;SDS011;10488;50.846;4.078;2022-10-04T23:16:34;12.35;;;6.80;;
20657;SDS011;10488;50.846;4.078;2022-10-04T23:19:07;13.80;;;6.72;;
20657;SDS011;10488;50.846;4.078;2022-10-04T23:21:36;14.98;;;7.10;;
20657;SDS011;10488;50.846;4.078;2022-10-04T23:24:16;8.88;;;6.38;;
20657;SDS011;10488;50.846;4.078;2022-10-04T23:26:45;13.23;;;7.05;;
20657;SDS011;10488;50.846;4.078;2022-10-04T23:31:43;13.25;;;7.20;;
20657;SDS011;10488;50.846;4.078;2022-10-04T23:34:17;10.85;;;6.47;;
20657;SDS011;10488;50.846;4.078;2022-10-04T23:36:50;9.55;;;6.32;;
20657;SDS011;10488;50.846;4.078;2022-10-04T23:39:23;9.20;;;6.18;;
20657;SDS011;10488;50.846;4.078;2022-10-04T23:41:52;13.70;;;6.65;;
20657;SDS011;10488;50.846;4.078;2022-10-04T23:44:20;9.82;;;6.68;;
20657;SDS011;10488;50.846;4.078;2022-10-04T23:46:48;8.95;;;7.07;;
20657;SDS011;10488;50.846;4.078;2022-10-04T23:49:15;9.88;;;6.93;;
20657;SDS011;10488;50.846;4.078;2022-10-04T23:51:42;10.38;;;6.80;;
20657;SDS011;10488;50.846;4.078;2022-10-04T23:54:12;14.05;;;6.72;;
20657;SDS011;10488;50.846;4.078;2022-10-04T23:56:40;9.68;;;6.50;;
20657;SDS011;10488;50.846;4.078;2022-10-04T23:59:17;10.65;;;6.53;;
